createdAt,value
2022-11-16T00:00:19.421Z,7.07
2022-11-16T00:02:48.128Z,7.65
2022-11-16T00:05:15.404Z,7.43
2022-11-16T00:07:42.341Z,8.02
2022-11-16T00:12:39.784Z,8.13
2022-11-16T00:15:20.258Z,7.25
2022-11-16T00:17:50.798Z,7.72
2022-11-16T00:20:36.151Z,8.18
2022-11-16T00:23:04.144Z,7.93
2022-11-16T00:25:31.607Z,7.50
2022-11-16T00:28:08.547Z,7.20
2022-11-16T00:30:43.289Z,9.52
2022-11-16T00:33:22.373Z,8.68
2022-11-16T00:35:53.114Z,7.82
2022-11-16T00:38:20.543Z,7.57
2022-11-16T00:40:47.541Z,7.28
2022-11-16T00:45:45.220Z,7.40
2022-11-16T00:48:12.679Z,7.22
2022-11-16T00:50:40.800Z,6.80
2022-11-16T00:53:11.999Z,6.65
2022-11-16T00:55:39.552Z,7.07
2022-11-16T00:58:06.627Z,6.22
2022-11-16T01:00:33.773Z,6.70
2022-11-16T01:03:02.320Z,7.25
2022-11-16T01:05:29.249Z,5.40
2022-11-16T01:10:25.345Z,5.93
2022-11-16T01:12:54.000Z,5.00
2022-11-16T01:15:23.402Z,5.68
2022-11-16T01:17:51.189Z,6.13
2022-11-16T01:20:23.900Z,5.35
2022-11-16T01:22:51.098Z,5.70
2022-11-16T01:25:18.138Z,5.28
2022-11-16T01:27:45.029Z,6.00
2022-11-16T01:30:18.954Z,6.43
2022-11-16T01:32:57.254Z,6.25
2022-11-16T01:35:24.251Z,6.00
2022-11-16T01:37:53.689Z,4.40
2022-11-16T01:40:21.226Z,5.28
2022-11-16T01:42:51.652Z,5.18
2022-11-16T01:45:30.314Z,5.63
2022-11-16T01:47:58.991Z,5.53
2022-11-16T01:50:32.653Z,4.72
2022-11-16T01:53:05.715Z,5.20
2022-11-16T01:55:41.611Z,5.40
2022-11-16T01:58:28.729Z,5.50
2022-11-16T02:01:02.008Z,5.22
2022-11-16T02:03:40.629Z,5.60
2022-11-16T02:06:26.549Z,5.90
2022-11-16T02:09:28.626Z,7.32
2022-11-16T02:12:26.321Z,5.47
2022-11-16T02:15:05.583Z,6.35
2022-11-16T02:17:47.823Z,5.18
2022-11-16T02:20:48.890Z,5.65
2022-11-16T02:23:52.761Z,6.07
2022-11-16T02:27:05.512Z,5.72
2022-11-16T02:29:45.821Z,6.32
2022-11-16T02:32:32.962Z,4.85
2022-11-16T02:35:15.108Z,6.65
2022-11-16T02:37:51.213Z,5.38
2022-11-16T02:40:22.050Z,6.35
2022-11-16T02:42:59.428Z,6.43
2022-11-16T02:45:31.966Z,5.75
2022-11-16T02:48:05.004Z,5.45
2022-11-16T02:50:34.603Z,6.70
2022-11-16T02:53:02.411Z,5.70
2022-11-16T02:55:36.463Z,6.28
2022-11-16T02:58:09.598Z,6.07
2022-11-16T03:00:59.299Z,6.53
2022-11-16T03:03:50.938Z,6.57
2022-11-16T03:06:30.330Z,7.45
2022-11-16T03:09:03.301Z,8.57
2022-11-16T03:11:56.156Z,7.88
2022-11-16T03:14:26.627Z,10.13
2022-11-16T03:16:57.642Z,11.13
2022-11-16T03:19:49.003Z,11.70
2022-11-16T03:22:24.411Z,9.65
2022-11-16T03:24:51.532Z,11.80
2022-11-16T03:27:30.365Z,12.25
2022-11-16T03:30:10.892Z,13.95
2022-11-16T03:33:03.044Z,14.35
2022-11-16T03:35:54.962Z,15.73
2022-11-16T03:38:24.710Z,16.15
2022-11-16T03:40:56.600Z,17.40
2022-11-16T03:43:26.911Z,14.57
2022-11-16T03:45:56.464Z,14.45
2022-11-16T03:48:23.961Z,17.40
2022-11-16T03:50:52.874Z,17.85
2022-11-16T03:53:20.569Z,14.40
2022-11-16T03:55:49.933Z,15.88
2022-11-16T03:58:18.564Z,18.02
2022-11-16T04:00:46.020Z,19.15
2022-11-16T04:03:13.007Z,16.92
2022-11-16T04:05:58.757Z,17.63
2022-11-16T04:08:44.097Z,18.10
2022-11-16T04:11:33.089Z,16.73
2022-11-16T04:14:19.289Z,16.13
2022-11-16T04:17:04.631Z,20.05
2022-11-16T04:19:56.767Z,18.23
2022-11-16T04:22:48.970Z,16.95
2022-11-16T04:25:30.633Z,16.02
2022-11-16T04:28:16.473Z,14.38
2022-11-16T04:31:19.456Z,18.25
2022-11-16T04:34:12.000Z,17.33
2022-11-16T04:37:03.461Z,18.30
2022-11-16T04:39:31.583Z,14.05
2022-11-16T04:42:19.199Z,16.52
2022-11-16T04:45:10.698Z,15.60
2022-11-16T04:47:48.091Z,15.43
2022-11-16T04:50:15.646Z,19.10
2022-11-16T04:52:42.786Z,16.33
2022-11-16T04:55:13.405Z,16.92
2022-11-16T04:57:41.291Z,16.70
2022-11-16T05:00:09.060Z,15.05
2022-11-16T05:02:41.356Z,17.52
2022-11-16T05:05:09.099Z,16.85
2022-11-16T05:07:41.166Z,17.60
2022-11-16T05:10:17.350Z,18.00
2022-11-16T05:12:44.410Z,16.85
2022-11-16T05:17:39.041Z,18.67
2022-11-16T05:20:30.294Z,18.55
2022-11-16T05:23:02.182Z,18.38
2022-11-16T05:25:36.811Z,16.52
2022-11-16T05:28:07.103Z,22.30
2022-11-16T05:30:38.061Z,21.85
2022-11-16T05:35:35.253Z,18.70
2022-11-16T05:40:30.327Z,19.90
2022-11-16T05:42:58.608Z,19.20
2022-11-16T05:45:28.290Z,16.85
2022-11-16T05:47:57.354Z,18.33
2022-11-16T05:50:24.059Z,18.95
2022-11-16T05:53:03.501Z,20.55
2022-11-16T05:55:30.300Z,16.33
2022-11-16T05:57:56.985Z,20.00
2022-11-16T06:00:25.295Z,17.70
2022-11-16T06:02:53.886Z,16.42
2022-11-16T06:05:25.899Z,18.00
2022-11-16T06:07:54.306Z,17.13
2022-11-16T06:10:21.591Z,18.92
2022-11-16T06:12:50.374Z,19.85
2022-11-16T06:15:17.866Z,17.13
2022-11-16T06:20:12.445Z,18.20
2022-11-16T06:22:40.221Z,20.30
2022-11-16T06:25:08.194Z,17.33
2022-11-16T06:27:40.438Z,20.80
2022-11-16T06:30:09.072Z,22.10
2022-11-16T06:32:36.178Z,23.23
2022-11-16T06:35:04.837Z,21.30
2022-11-16T06:37:34.011Z,19.67
2022-11-16T06:40:00.859Z,20.38
2022-11-16T06:42:31.035Z,21.48
2022-11-16T06:44:59.251Z,20.52
2022-11-16T06:47:30.113Z,21.58
2022-11-16T06:50:00.592Z,22.67
2022-11-16T06:52:27.351Z,20.90
2022-11-16T06:54:55.461Z,19.02
2022-11-16T06:57:22.394Z,21.52
2022-11-16T07:02:16.693Z,21.20
2022-11-16T07:04:44.884Z,18.83
2022-11-16T07:09:39.781Z,20.70
2022-11-16T07:12:07.011Z,17.20
2022-11-16T07:14:37.448Z,19.75
2022-11-16T07:17:09.493Z,17.38
2022-11-16T07:19:37.088Z,18.38
2022-11-16T07:22:04.934Z,17.77
2022-11-16T07:24:32.774Z,16.10
2022-11-16T07:26:59.795Z,16.58
2022-11-16T07:29:30.690Z,16.25
2022-11-16T07:32:19.037Z,14.82
2022-11-16T07:35:10.239Z,12.82
2022-11-16T07:37:39.084Z,14.52
2022-11-16T07:40:08.122Z,13.38
2022-11-16T07:42:35.978Z,14.55
2022-11-16T07:45:13.019Z,13.30
2022-11-16T07:47:52.193Z,13.45
2022-11-16T07:50:26.065Z,14.00
2022-11-16T07:52:55.595Z,10.43
2022-11-16T07:55:25.543Z,9.55
2022-11-16T07:57:53.604Z,9.23
2022-11-16T08:00:21.136Z,7.57
2022-11-16T08:02:57.166Z,7.18
2022-11-16T08:05:25.281Z,7.80
2022-11-16T08:10:23.208Z,6.32
2022-11-16T08:12:50.322Z,6.78
2022-11-16T08:15:19.128Z,6.25
2022-11-16T08:17:46.042Z,6.55
2022-11-16T08:20:13.246Z,6.28
2022-11-16T08:22:41.083Z,5.22
2022-11-16T08:25:09.586Z,6.85
2022-11-16T08:27:38.282Z,5.78
2022-11-16T08:30:09.823Z,5.32
2022-11-16T08:32:38.166Z,5.25
2022-11-16T08:35:05.721Z,4.82
2022-11-16T08:37:32.513Z,4.55
2022-11-16T08:42:26.102Z,3.53
2022-11-16T08:44:53.907Z,3.10
2022-11-16T08:47:21.129Z,2.40
2022-11-16T08:49:58.075Z,2.83
2022-11-16T08:52:27.253Z,2.40
2022-11-16T08:54:55.144Z,2.58
2022-11-16T08:59:53.761Z,1.67
2022-11-16T09:02:25.388Z,2.50
2022-11-16T09:04:53.111Z,1.77
2022-11-16T09:07:20.373Z,1.70
2022-11-16T09:09:47.201Z,1.60
2022-11-16T09:14:40.681Z,2.15
2022-11-16T09:19:34.068Z,5.50
2022-11-16T09:24:27.404Z,17.02
2022-11-16T09:26:56.696Z,2.22
2022-11-16T09:29:23.435Z,1.60
2022-11-16T09:31:50.072Z,2.10
2022-11-16T09:34:17.068Z,1.85
2022-11-16T09:36:43.784Z,2.17
2022-11-16T09:42:32.538Z,2.05
2022-11-16T09:45:04.758Z,1.67
2022-11-16T09:47:40.453Z,1.98
2022-11-16T09:50:31.161Z,3.88
2022-11-16T09:53:06.106Z,1.90
2022-11-16T09:55:37.879Z,2.30
2022-11-16T09:58:12.946Z,2.08
2022-11-16T10:00:47.300Z,2.00
2022-11-16T10:03:15.262Z,2.33
2022-11-16T10:06:03.748Z,2.05
2022-11-16T10:08:45.437Z,1.52
2022-11-16T10:11:12.236Z,1.80
2022-11-16T10:14:08.264Z,1.70
2022-11-16T10:16:58.336Z,1.58
2022-11-16T10:19:30.966Z,1.60
2022-11-16T10:22:41.120Z,1.33
2022-11-16T10:25:16.228Z,1.48
2022-11-16T10:27:49.276Z,2.03
2022-11-16T10:30:21.141Z,1.20
2022-11-16T10:32:54.424Z,1.70
2022-11-16T10:35:45.407Z,2.05
2022-11-16T10:38:19.261Z,1.88
2022-11-16T10:41:04.485Z,1.17
2022-11-16T10:43:33.195Z,1.50
2022-11-16T10:46:19.419Z,1.60
2022-11-16T10:49:08.636Z,1.30
2022-11-16T10:51:35.425Z,1.42
2022-11-16T10:56:41.387Z,2.15
2022-11-16T10:59:38.452Z,1.85
2022-11-16T11:02:31.849Z,1.77
2022-11-16T11:05:17.825Z,1.70
2022-11-16T11:08:07.617Z,1.67
2022-11-16T11:10:39.652Z,2.28
2022-11-16T11:13:10.519Z,1.55
2022-11-16T11:15:39.451Z,1.58
2022-11-16T11:18:23.373Z,1.40
2022-11-16T11:21:07.018Z,1.77
2022-11-16T11:23:52.351Z,2.53
2022-11-16T11:26:36.999Z,1.75
2022-11-16T11:29:29.726Z,2.28
2022-11-16T11:32:04.164Z,2.15
2022-11-16T11:34:39.655Z,1.65
2022-11-16T11:37:38.236Z,2.45
2022-11-16T11:40:17.005Z,1.95
2022-11-16T11:42:58.891Z,2.03
2022-11-16T11:45:32.811Z,1.83
2022-11-16T11:48:07.246Z,1.60
2022-11-16T11:50:39.052Z,1.95
2022-11-16T11:53:42.987Z,2.15
2022-11-16T11:56:12.363Z,1.33
2022-11-16T11:58:41.068Z,1.92
2022-11-16T12:01:22.220Z,1.88
2022-11-16T12:04:07.720Z,2.03
2022-11-16T12:07:05.151Z,1.73
2022-11-16T12:09:40.710Z,1.92
2022-11-16T12:12:41.861Z,2.28
2022-11-16T12:15:35.580Z,1.80
2022-11-16T12:18:18.052Z,2.22
2022-11-16T12:21:09.129Z,2.10
2022-11-16T12:23:55.535Z,2.20
2022-11-16T12:26:47.443Z,1.60
2022-11-16T12:29:31.065Z,1.85
2022-11-16T12:32:18.214Z,2.00
2022-11-16T12:34:58.531Z,2.42
2022-11-16T12:37:37.112Z,2.00
2022-11-16T12:40:12.853Z,2.25
2022-11-16T12:43:17.936Z,1.38
2022-11-16T12:45:57.288Z,1.30
2022-11-16T12:48:36.667Z,1.67
2022-11-16T12:51:31.816Z,1.92
2022-11-16T12:54:22.923Z,1.17
2022-11-16T12:57:04.946Z,1.55
2022-11-16T12:59:40.451Z,1.63
2022-11-16T13:02:52.019Z,2.10
2022-11-16T13:05:44.197Z,1.75
2022-11-16T13:08:34.085Z,2.88
2022-11-16T13:11:15.510Z,1.30
2022-11-16T13:13:46.846Z,1.70
2022-11-16T13:16:20.446Z,1.02
2022-11-16T13:18:47.433Z,1.23
2022-11-16T13:21:37.624Z,1.70
2022-11-16T13:24:26.312Z,1.48
2022-11-16T13:27:16.124Z,1.50
2022-11-16T13:30:04.099Z,2.38
2022-11-16T13:35:18.222Z,1.20
2022-11-16T13:37:47.086Z,2.20
2022-11-16T13:40:28.705Z,1.60
2022-11-16T13:43:10.794Z,1.75
2022-11-16T13:45:49.715Z,1.60
2022-11-16T13:48:21.023Z,1.70
2022-11-16T13:50:53.646Z,1.02
2022-11-16T13:56:48.888Z,1.15
2022-11-16T13:59:16.487Z,1.42
2022-11-16T14:02:00.844Z,1.30
2022-11-16T14:04:40.723Z,1.73
2022-11-16T14:07:29.261Z,1.17
2022-11-16T14:09:56.166Z,1.23
2022-11-16T14:12:38.092Z,1.90
2022-11-16T14:15:18.472Z,1.75
2022-11-16T14:18:23.238Z,1.50
2022-11-16T14:20:57.785Z,1.67
2022-11-16T14:23:36.760Z,1.88
2022-11-16T14:26:18.858Z,1.50
2022-11-16T14:29:10.882Z,1.90
2022-11-16T14:31:56.635Z,1.40
2022-11-16T14:34:40.239Z,1.10
2022-11-16T14:37:28.419Z,1.77
2022-11-16T14:40:19.110Z,3.25
2022-11-16T14:45:48.470Z,2.33
2022-11-16T14:48:20.462Z,1.40
2022-11-16T14:51:13.377Z,1.73
2022-11-16T14:53:47.839Z,1.40
2022-11-16T14:56:17.474Z,2.15
2022-11-16T14:58:59.104Z,1.38
2022-11-16T15:01:29.283Z,2.17
2022-11-16T15:04:02.419Z,1.40
2022-11-16T15:06:33.496Z,1.58
2022-11-16T15:09:03.523Z,2.08
2022-11-16T15:11:54.116Z,3.42
2022-11-16T15:14:34.171Z,1.85
2022-11-16T15:17:00.888Z,1.83
2022-11-16T15:19:30.707Z,1.95
2022-11-16T15:22:01.870Z,1.50
2022-11-16T15:24:32.188Z,2.97
2022-11-16T15:27:34.562Z,1.90
2022-11-16T15:30:03.875Z,1.63
2022-11-16T15:32:32.057Z,1.77
2022-11-16T15:35:03.986Z,1.67
2022-11-16T15:37:32.275Z,1.23
2022-11-16T15:40:00.560Z,1.83
2022-11-16T15:42:28.051Z,1.85
2022-11-16T15:44:55.552Z,2.05
2022-11-16T15:47:23.587Z,2.35
2022-11-16T15:49:52.959Z,1.73
2022-11-16T15:52:46.005Z,1.65
2022-11-16T15:55:38.927Z,2.03
2022-11-16T15:58:26.321Z,1.98
2022-11-16T16:00:54.508Z,3.28
2022-11-16T16:03:25.985Z,3.50
2022-11-16T16:05:54.340Z,8.82
2022-11-16T16:08:30.403Z,8.98
2022-11-16T16:11:05.614Z,6.57
2022-11-16T16:13:38.483Z,6.18
2022-11-16T16:16:30.186Z,6.35
2022-11-16T16:19:03.808Z,4.95
2022-11-16T16:21:53.372Z,5.43
2022-11-16T16:24:40.952Z,4.63
2022-11-16T16:27:14.931Z,3.50
2022-11-16T16:29:41.773Z,5.57
2022-11-16T16:34:42.136Z,6.50
2022-11-16T16:37:11.787Z,6.70
2022-11-16T16:39:39.813Z,4.68
2022-11-16T16:42:11.556Z,4.68
2022-11-16T16:44:39.072Z,5.57
2022-11-16T16:47:06.058Z,5.15
2022-11-16T16:51:59.507Z,3.95
2022-11-16T16:54:28.295Z,6.10
2022-11-16T16:56:57.201Z,7.60
2022-11-16T16:59:24.996Z,7.20
2022-11-16T17:01:52.026Z,7.93
2022-11-16T17:04:19.447Z,7.63
2022-11-16T17:06:48.005Z,6.88
2022-11-16T17:09:15.160Z,6.22
2022-11-16T17:11:42.223Z,5.75
2022-11-16T17:14:42.763Z,5.68
2022-11-16T17:17:11.706Z,6.82
2022-11-16T17:19:38.725Z,5.00
2022-11-16T17:22:05.518Z,5.40
2022-11-16T17:24:34.181Z,4.53
2022-11-16T17:27:00.918Z,5.72
2022-11-16T17:29:27.651Z,7.07
2022-11-16T17:31:54.760Z,5.65
2022-11-16T17:34:21.482Z,4.90
2022-11-16T17:36:48.281Z,5.80
2022-11-16T17:39:15.937Z,8.48
2022-11-16T17:41:42.693Z,9.32
2022-11-16T17:44:09.437Z,11.23
2022-11-16T17:46:36.508Z,9.00
2022-11-16T17:49:03.270Z,7.68
2022-11-16T17:51:30.312Z,7.40
2022-11-16T17:56:28.695Z,6.53
2022-11-16T17:58:58.214Z,6.47
2022-11-16T18:01:25.883Z,7.18
2022-11-16T18:03:52.704Z,5.75
2022-11-16T18:06:22.032Z,5.90
2022-11-16T18:08:49.371Z,7.38
2022-11-16T18:11:24.758Z,7.30
2022-11-16T18:14:00.582Z,8.35
2022-11-16T18:16:30.888Z,7.50
2022-11-16T18:19:03.172Z,6.72
2022-11-16T18:21:30.433Z,7.35
2022-11-16T18:23:59.288Z,7.18
2022-11-16T18:26:26.106Z,5.32
2022-11-16T18:28:53.198Z,4.45
2022-11-16T18:31:22.183Z,4.07
2022-11-16T18:33:49.303Z,4.93
2022-11-16T18:36:17.777Z,3.90
2022-11-16T18:38:45.323Z,5.70
2022-11-16T18:41:12.175Z,7.32
2022-11-16T18:43:39.531Z,7.28
2022-11-16T18:46:06.428Z,7.28
2022-11-16T18:51:01.768Z,14.32
2022-11-16T18:53:29.880Z,13.35
2022-11-16T18:55:58.317Z,14.02
2022-11-16T18:58:49.279Z,15.48
2022-11-16T19:01:14.770Z,29.33
2022-11-16T19:03:41.844Z,16.00
2022-11-16T19:08:38.282Z,11.70
2022-11-16T19:11:14.250Z,12.60
2022-11-16T19:13:43.114Z,13.23
2022-11-16T19:16:12.487Z,16.42
2022-11-16T19:18:39.401Z,15.40
2022-11-16T19:23:45.044Z,15.20
2022-11-16T19:26:13.674Z,11.55
2022-11-16T19:28:42.510Z,10.85
2022-11-16T19:31:16.279Z,8.20
2022-11-16T19:33:44.527Z,8.63
2022-11-16T19:36:11.605Z,6.28
2022-11-16T19:41:07.080Z,16.17
2022-11-16T19:43:34.762Z,23.45
2022-11-16T19:46:12.562Z,18.48
2022-11-16T19:48:39.551Z,10.75
2022-11-16T19:53:35.192Z,7.55
2022-11-16T19:56:03.503Z,6.38
2022-11-16T19:58:32.069Z,7.15
2022-11-16T20:01:07.713Z,8.63
2022-11-16T20:03:35.218Z,6.30
2022-11-16T20:06:17.037Z,5.85
2022-11-16T20:08:48.139Z,5.32
2022-11-16T20:11:27.971Z,5.72
2022-11-16T20:13:56.512Z,4.43
2022-11-16T20:16:25.958Z,4.13
2022-11-16T20:18:53.560Z,4.50
2022-11-16T20:21:32.933Z,4.53
2022-11-16T20:24:06.107Z,4.55
2022-11-16T20:26:35.907Z,5.60
2022-11-16T20:29:03.491Z,7.53
2022-11-16T20:31:32.344Z,7.40
2022-11-16T20:34:01.317Z,6.43
2022-11-16T20:36:30.006Z,6.45
2022-11-16T20:38:58.078Z,8.18
2022-11-16T20:41:27.272Z,7.25
2022-11-16T20:43:56.099Z,6.43
2022-11-16T20:46:25.741Z,7.20
2022-11-16T20:48:52.674Z,8.30
2022-11-16T20:53:48.081Z,7.60
2022-11-16T20:56:16.685Z,8.25
2022-11-16T20:58:43.609Z,8.32
2022-11-16T21:03:42.480Z,10.25
2022-11-16T21:06:09.237Z,14.32
2022-11-16T21:08:37.801Z,12.07
2022-11-16T21:11:21.393Z,11.65
2022-11-16T21:14:07.469Z,9.00
2022-11-16T21:16:34.690Z,8.60
2022-11-16T21:19:01.805Z,10.43
2022-11-16T21:21:29.435Z,8.98
2022-11-16T21:23:56.319Z,8.20
2022-11-16T21:26:26.116Z,8.80
2022-11-16T21:28:53.548Z,9.05
2022-11-16T21:31:22.467Z,7.53
2022-11-16T21:33:49.207Z,6.93
2022-11-16T21:36:18.233Z,5.78
2022-11-16T21:38:45.538Z,5.78
2022-11-16T21:41:14.147Z,4.40
2022-11-16T21:43:41.280Z,5.07
2022-11-16T21:46:11.365Z,4.97
2022-11-16T21:48:38.909Z,6.50
2022-11-16T21:51:08.092Z,6.57
2022-11-16T21:53:35.993Z,6.32
2022-11-16T21:56:04.099Z,6.90
2022-11-16T21:58:30.871Z,6.13
2022-11-16T22:00:59.630Z,6.43
2022-11-16T22:03:31.646Z,6.97
2022-11-16T22:06:19.707Z,6.80
2022-11-16T22:08:47.669Z,7.65
2022-11-16T22:11:15.860Z,7.57
2022-11-16T22:13:43.330Z,10.65
2022-11-16T22:16:15.188Z,9.32
2022-11-16T22:18:41.891Z,8.88
2022-11-16T22:21:09.290Z,7.95
2022-11-16T22:23:36.922Z,8.00
2022-11-16T22:26:09.743Z,6.97
2022-11-16T22:28:37.514Z,8.02
2022-11-16T22:31:12.857Z,6.30
2022-11-16T22:33:40.031Z,6.03
2022-11-16T22:36:09.280Z,8.07
2022-11-16T22:38:36.569Z,7.28
2022-11-16T22:41:03.412Z,6.93
2022-11-16T22:43:31.404Z,8.75
2022-11-16T22:45:59.587Z,7.55
2022-11-16T22:48:38.279Z,5.82
2022-11-16T22:51:25.239Z,5.63
2022-11-16T22:54:00.149Z,5.45
2022-11-16T22:56:28.449Z,4.82
2022-11-16T22:58:55.753Z,4.82
2022-11-16T23:01:23.186Z,5.53
2022-11-16T23:03:50.661Z,4.53
2022-11-16T23:06:17.598Z,4.75
2022-11-16T23:08:44.615Z,5.60
2022-11-16T23:14:20.882Z,3.70
2022-11-16T23:16:48.321Z,3.40
2022-11-16T23:19:36.925Z,3.45
2022-11-16T23:22:22.599Z,3.90
2022-11-16T23:25:08.071Z,4.22
2022-11-16T23:28:00.103Z,4.38
2022-11-16T23:30:27.379Z,2.30
2022-11-16T23:32:54.230Z,2.30
2022-11-16T23:35:21.206Z,2.75
2022-11-16T23:40:22.172Z,2.50
2022-11-16T23:43:07.326Z,2.65
2022-11-16T23:45:35.178Z,2.55
2022-11-16T23:48:02.226Z,2.20
2022-11-16T23:52:55.633Z,1.65
2022-11-16T23:55:23.085Z,1.50
2022-11-16T23:57:50.682Z,1.73
